Terminal Aerodrome Forecast
Issued by NWS Austin/San Antonio, TX

Home | Current Version | Previous Version | Text Only | Print | Product List | Glossary On
Versions: 1 2 3 4 5 6 7 8 9 10 11 12 13 14 15 16 17 18 19 20 21 22 23
000
FTUS44 KEWX 211700 CCA
TAFDRT
TAF COR
KDRT 211753Z 2118/2218 17004KT 2SM BR OVC002
     FM211900 14011KT P6SM SCT015 BKN040
     FM220900 12006KT 1SM BR OVC002=

USA.gov is the U.S. government's official web portal to all federal, state and local government web resources and services.